KACK

Nantucket Memorial Airport

Nantucket, Massachusetts, USA
KACK 181122Z 1812/1912 22010KT P6SM SKC FM181300 21015KT P6SM SCT250 FM182200 21018KT 3SM BR VCSH BKN008 FM190300 22016G25KT 1/2SM FG OVC003 WS020/24045KT
Issued Valid From Valid To
Jun-18 @ 11:22 UTC
(2 hours ago)
Jun-18 @ 12:00 UTC
(an hour ago)
Jun-19 @ 12:00 UTC
(in 23 hours)
Expired Click to View Jun-18 @ 12:00 to Jun-18 @ 13:00
KACK 181122Z 1812/1912 22010KT P6SM SKC
Wind Visibility Clouds
220° at 10 knots Greater than 6 miles
  • Clear skies
From Jun-18 @ 13:00 to Jun-18 @ 22:00
FM181300 21015KT P6SM SCT250
Wind Visibility Clouds
210° at 15 knots Greater than 6 miles
  • Scattered at 25,000' AGL
From Jun-18 @ 22:00 to Jun-19 @ 03:00
FM182200 21018KT 3SM BR VCSH BKN008
Wind Visibility Clouds Conditions
210° at 18 knots 3 miles
  • Broken at 800' AGL
  • Mist
From Jun-19 @ 03:00 to Jun-19 @ 12:00
FM190300 22016G25KT 1/2SM FG OVC003 WS020/24045KT
Wind Visibility Clouds Conditions
220° at 16 knots
 Gusting to 25 knots
 Wind shear 2,000' AGL from 240° at 45 knots
1/2 miles
  • Overcast at 300' AGL
  • Fog
KACK 181122Z 1812/1912 22010KT P6SM SKC FM181300 21015KT P6SM SCT250 FM182200 21018KT 3SM BR VCSH BKN008 FM190300 22016G25KT 1/2SM FG OVC003 WS020/24045KT
Issued Jun-18 @ 11:22 UTC
(2 hours ago)
Valid From Jun-18 @ 12:00 UTC
(an hour ago)
Valid To Jun-19 @ 12:00 UTC
(in 23 hours)
Jun-18 @ 12:00 - Jun-18 @ 13:00
Wind Visibility
220° at 10 knots Greater than 6 miles
Clouds
  • Clear skies
From Jun-18 @ 13:00 - Jun-18 @ 22:00
Wind Visibility
210° at 15 knots Greater than 6 miles
Clouds
  • Scattered at 25,000' AGL
From Jun-18 @ 22:00 - Jun-19 @ 03:00
Wind Visibility
210° at 18 knots 3 miles
Clouds
  • Broken at 800' AGL
Conditions
  • Mist
From Jun-19 @ 03:00 - Jun-19 @ 12:00
Wind Visibility
220° at 16 knots
 Gusting to 25 knots
1/2 miles
Clouds
  • Overcast at 300' AGL
Conditions
  • Fog